createdAt,value
2022-12-19T00:01:59.049Z,-1.90
2022-12-19T00:04:27.194Z,-1.90
2022-12-19T00:06:57.529Z,-1.90
2022-12-19T00:09:25.793Z,-2.00
2022-12-19T00:11:54.021Z,-1.90
2022-12-19T00:14:23.196Z,-1.90
2022-12-19T00:16:51.027Z,-2.00
2022-12-19T00:19:18.944Z,-2.00
2022-12-19T00:21:46.753Z,-2.00
2022-12-19T00:24:20.553Z,-2.00
2022-12-19T00:26:49.930Z,-2.00
2022-12-19T00:29:17.788Z,-2.00
2022-12-19T00:31:47.098Z,-2.00
2022-12-19T00:34:15.956Z,-2.10
2022-12-19T00:36:44.145Z,-2.00
2022-12-19T00:39:12.897Z,-2.00
2022-12-19T00:41:42.540Z,-2.00
2022-12-19T00:44:12.821Z,-1.90
2022-12-19T00:46:42.032Z,-1.90
2022-12-19T00:49:11.165Z,-2.00
2022-12-19T00:51:39.297Z,-2.00
2022-12-19T00:54:10.913Z,-2.00
2022-12-19T00:56:39.800Z,-2.00
2022-12-19T00:59:08.779Z,-2.00
2022-12-19T01:01:38.866Z,-2.00
2022-12-19T01:07:02.301Z,-2.00
2022-12-19T01:09:35.862Z,-2.00
2022-12-19T01:12:24.552Z,-2.00
2022-12-19T01:14:55.185Z,-2.00
2022-12-19T01:17:34.629Z,-2.00
2022-12-19T01:20:09.319Z,-2.00
2022-12-19T01:22:38.712Z,-2.00
2022-12-19T01:25:07.539Z,-2.00
2022-12-19T01:27:35.403Z,-2.00
2022-12-19T01:30:03.455Z,-2.00
2022-12-19T01:32:34.688Z,-1.90
2022-12-19T01:35:02.588Z,-1.90
2022-12-19T01:37:30.401Z,-1.90
2022-12-19T01:40:00.657Z,-1.80
2022-12-19T01:42:35.677Z,-1.80
2022-12-19T01:45:33.904Z,-1.80
2022-12-19T01:48:16.320Z,-1.80
2022-12-19T01:51:00.871Z,-1.70
2022-12-19T01:53:35.471Z,-1.70
2022-12-19T01:56:08.438Z,-1.70
2022-12-19T01:58:38.892Z,-1.70
2022-12-19T02:01:07.087Z,-1.70
2022-12-19T02:03:38.397Z,-1.70
2022-12-19T02:06:07.932Z,-1.70
2022-12-19T02:08:37.121Z,-1.60
2022-12-19T02:11:06.783Z,-1.70
2022-12-19T02:13:35.623Z,-1.70
2022-12-19T02:16:13.686Z,-1.70
2022-12-19T02:18:49.174Z,-1.70
2022-12-19T02:21:26.183Z,-1.60
2022-12-19T02:24:23.278Z,-1.60
2022-12-19T02:27:17.332Z,-1.60
2022-12-19T02:30:10.135Z,-1.60
2022-12-19T02:32:55.752Z,-1.60
2022-12-19T02:35:33.846Z,-1.60
2022-12-19T02:38:12.843Z,-1.60
2022-12-19T02:40:45.963Z,-1.60
2022-12-19T02:43:19.295Z,-1.60
2022-12-19T02:45:49.473Z,-1.60
2022-12-19T02:48:19.692Z,-1.60
2022-12-19T02:50:50.421Z,-1.60
2022-12-19T02:53:22.439Z,-1.50
2022-12-19T02:56:10.775Z,-1.40
2022-12-19T02:58:53.706Z,-1.40
2022-12-19T03:01:38.258Z,-1.40
2022-12-19T03:04:17.037Z,-1.30
2022-12-19T03:06:53.179Z,-1.30
2022-12-19T03:09:32.855Z,-1.30
2022-12-19T03:12:07.467Z,-1.40
2022-12-19T03:14:36.685Z,-1.30
2022-12-19T03:17:06.879Z,-1.30
2022-12-19T03:19:37.106Z,-1.20
2022-12-19T03:22:05.098Z,-1.20
2022-12-19T03:24:33.034Z,-1.20
2022-12-19T03:27:06.485Z,-1.20
2022-12-19T03:29:38.354Z,-1.20
2022-12-19T03:32:10.572Z,-1.20
2022-12-19T03:34:43.002Z,-1.20
2022-12-19T03:37:16.239Z,-1.10
2022-12-19T03:39:48.468Z,-1.20
2022-12-19T03:42:35.895Z,-1.10
2022-12-19T03:45:07.184Z,-1.10
2022-12-19T03:47:39.084Z,-1.10
2022-12-19T03:50:09.796Z,-1.10
2022-12-19T03:52:46.477Z,-1.10
2022-12-19T03:55:19.081Z,-1.10
2022-12-19T03:57:52.335Z,-1.00
2022-12-19T04:00:20.838Z,-1.00
2022-12-19T04:02:51.063Z,-1.00
2022-12-19T04:05:22.569Z,-1.00
2022-12-19T04:07:52.548Z,-1.00
2022-12-19T04:10:23.010Z,-1.00
2022-12-19T04:12:55.122Z,-1.00
2022-12-19T04:15:33.935Z,-1.00
2022-12-19T04:18:05.052Z,-1.00
2022-12-19T04:20:38.630Z,-1.00
2022-12-19T04:23:12.770Z,-1.00
2022-12-19T04:25:44.326Z,-0.90
2022-12-19T04:28:15.795Z,-1.00
2022-12-19T04:30:45.917Z,-1.00
2022-12-19T04:33:13.848Z,-1.00
2022-12-19T04:35:43.110Z,-0.90
2022-12-19T04:38:11.083Z,-0.90
2022-12-19T04:40:41.543Z,-1.00
2022-12-19T04:43:10.122Z,-0.90
2022-12-19T04:45:38.017Z,-0.80
2022-12-19T04:48:07.628Z,-0.90
2022-12-19T04:50:36.785Z,-0.90
2022-12-19T04:53:06.475Z,-0.80
2022-12-19T04:55:34.344Z,-0.80
2022-12-19T04:58:05.217Z,-0.90
2022-12-19T05:00:33.151Z,-0.90
2022-12-19T05:03:01.107Z,-0.90
2022-12-19T05:05:29.183Z,-0.80
2022-12-19T05:07:57.445Z,-0.80
2022-12-19T05:10:26.634Z,-0.80
2022-12-19T05:12:55.032Z,-0.80
2022-12-19T05:15:23.428Z,-0.80
2022-12-19T05:17:51.304Z,-0.70
2022-12-19T05:20:19.494Z,-0.70
2022-12-19T05:22:47.360Z,-0.70
2022-12-19T05:25:15.293Z,-0.70
2022-12-19T05:27:44.523Z,-0.60
2022-12-19T05:30:13.284Z,-0.60
2022-12-19T05:32:41.236Z,-0.60
2022-12-19T05:35:09.261Z,-0.50
2022-12-19T05:37:37.129Z,-0.40
2022-12-19T05:40:05.543Z,-0.50
2022-12-19T05:42:33.429Z,-0.40
2022-12-19T05:45:02.559Z,-0.40
2022-12-19T05:47:30.450Z,-0.40
2022-12-19T05:49:58.316Z,-0.30
2022-12-19T05:52:26.383Z,-0.30
2022-12-19T05:54:54.329Z,-0.30
2022-12-19T05:57:22.329Z,-0.30
2022-12-19T05:59:50.235Z,-0.20
2022-12-19T06:02:19.551Z,-0.20
2022-12-19T06:04:47.627Z,-0.10
2022-12-19T06:07:20.721Z,-0.10
2022-12-19T06:09:49.003Z,0.00
2022-12-19T06:12:16.902Z,0.00
2022-12-19T06:14:44.735Z,0.00
2022-12-19T06:17:12.625Z,0.00
2022-12-19T06:19:41.915Z,0.00
2022-12-19T06:22:09.765Z,0.00
2022-12-19T06:24:37.659Z,0.10
2022-12-19T06:27:05.496Z,0.10
2022-12-19T06:29:33.657Z,0.10
2022-12-19T06:32:01.499Z,0.10
2022-12-19T06:35:02.181Z,0.10
2022-12-19T06:37:18.634Z,0.10
2022-12-19T06:39:46.557Z,0.10
2022-12-19T06:42:25.606Z,0.10
2022-12-19T06:44:55.988Z,0.10
2022-12-19T06:47:25.441Z,0.10
2022-12-19T06:49:53.265Z,0.10
2022-12-19T06:52:22.489Z,0.10
2022-12-19T06:54:50.287Z,0.10
2022-12-19T06:57:18.186Z,0.20
2022-12-19T06:59:46.008Z,0.20
2022-12-19T07:02:25.805Z,0.20
2022-12-19T07:04:59.787Z,0.30
2022-12-19T07:07:29.819Z,0.30
2022-12-19T07:09:57.712Z,0.30
2022-12-19T07:12:25.562Z,0.40
2022-12-19T07:14:53.904Z,0.40
2022-12-19T07:17:23.331Z,0.40
2022-12-19T07:19:51.500Z,0.40
2022-12-19T07:22:19.367Z,0.50
2022-12-19T07:24:48.839Z,0.40
2022-12-19T07:27:16.800Z,0.40
2022-12-19T07:29:44.708Z,0.50
2022-12-19T07:32:12.557Z,0.50
2022-12-19T07:34:40.457Z,0.50
2022-12-19T07:37:08.450Z,0.50
2022-12-19T07:39:36.309Z,0.60
2022-12-19T07:42:05.742Z,0.60
2022-12-19T07:44:39.900Z,0.60
2022-12-19T07:47:07.749Z,0.60
2022-12-19T07:49:35.540Z,0.70
2022-12-19T07:52:03.466Z,0.70
2022-12-19T07:54:31.419Z,0.70
2022-12-19T07:56:59.239Z,0.80
2022-12-19T07:59:32.220Z,0.80
2022-12-19T08:02:02.434Z,0.80
2022-12-19T08:04:30.550Z,0.80
2022-12-19T08:06:58.404Z,0.80
2022-12-19T08:09:27.711Z,0.80
2022-12-19T08:11:55.677Z,0.90
2022-12-19T08:14:23.629Z,0.90
2022-12-19T08:19:40.780Z,1.00
2022-12-19T08:22:08.922Z,1.00
2022-12-19T08:24:36.764Z,1.00
2022-12-19T08:27:04.766Z,1.00
2022-12-19T08:29:32.776Z,1.10
2022-12-19T08:32:01.909Z,1.10
2022-12-19T08:34:29.780Z,1.10
2022-12-19T08:36:57.647Z,1.10
2022-12-19T08:39:25.566Z,1.10
2022-12-19T08:41:53.492Z,1.10
2022-12-19T08:44:21.508Z,1.20
2022-12-19T08:46:50.567Z,1.20
2022-12-19T08:49:20.472Z,1.30
2022-12-19T08:51:48.527Z,1.40
2022-12-19T08:54:16.431Z,1.40
2022-12-19T08:56:46.821Z,1.50
2022-12-19T08:59:16.093Z,1.50
2022-12-19T09:01:58.878Z,1.60
2022-12-19T09:06:00.589Z,1.70
2022-12-19T09:07:16.903Z,1.60
2022-12-19T09:09:45.189Z,1.70
2022-12-19T09:12:13.849Z,1.70
2022-12-19T09:14:41.781Z,1.70
2022-12-19T09:17:09.816Z,1.70
2022-12-19T09:19:39.117Z,1.80
2022-12-19T09:22:09.094Z,1.80
2022-12-19T09:24:36.988Z,1.80
2022-12-19T09:27:05.067Z,1.80
2022-12-19T09:29:35.537Z,1.80
2022-12-19T09:32:04.030Z,1.80
2022-12-19T09:34:36.869Z,1.80
2022-12-19T09:37:08.180Z,1.90
2022-12-19T09:39:36.643Z,1.90
2022-12-19T09:42:17.880Z,1.90
2022-12-19T09:45:00.185Z,2.00
2022-12-19T09:47:31.474Z,2.00
2022-12-19T09:50:00.682Z,2.10
2022-12-19T09:52:33.981Z,2.10
2022-12-19T09:55:06.683Z,2.10
2022-12-19T09:57:42.713Z,2.10
2022-12-19T10:00:14.607Z,2.10
2022-12-19T10:02:48.278Z,2.10
2022-12-19T10:05:32.327Z,2.10
2022-12-19T10:08:18.634Z,2.10
2022-12-19T10:12:38.706Z,2.20
2022-12-19T10:14:03.990Z,2.20
2022-12-19T10:16:52.163Z,2.20
2022-12-19T10:19:41.108Z,2.30
2022-12-19T10:22:19.741Z,2.40
2022-12-19T10:25:10.538Z,2.40
2022-12-19T10:27:59.840Z,2.30
2022-12-19T10:30:31.773Z,2.30
2022-12-19T10:33:06.628Z,2.30
2022-12-19T10:35:43.594Z,2.40
2022-12-19T10:38:23.164Z,2.40
2022-12-19T10:41:05.011Z,2.30
2022-12-19T10:43:44.793Z,2.40
2022-12-19T10:46:18.058Z,2.60
2022-12-19T10:48:46.400Z,2.60
2022-12-19T10:51:20.036Z,2.50
2022-12-19T10:53:54.545Z,2.50
2022-12-19T10:56:26.072Z,2.50
2022-12-19T10:59:01.326Z,2.50
2022-12-19T11:01:34.349Z,2.50
2022-12-19T11:04:30.364Z,2.50
2022-12-19T11:07:19.741Z,2.50
2022-12-19T11:09:59.959Z,2.50
2022-12-19T11:16:57.577Z,2.50
2022-12-19T11:19:47.138Z,2.60
2022-12-19T11:27:48.691Z,2.60
2022-12-19T11:29:30.580Z,2.60
2022-12-19T11:30:41.126Z,2.70
2022-12-19T11:30:41.737Z,2.60
2022-12-19T11:32:41.153Z,2.80
2022-12-19T11:35:19.674Z,2.80
2022-12-19T11:37:55.779Z,2.80
2022-12-19T11:40:33.174Z,2.80
2022-12-19T11:46:01.893Z,2.80
2022-12-19T11:48:39.731Z,2.90
2022-12-19T11:51:16.791Z,2.80
2022-12-19T11:53:53.882Z,2.90
2022-12-19T11:56:24.573Z,2.90
2022-12-19T11:58:56.672Z,2.90
2022-12-19T12:01:41.103Z,2.80
2022-12-19T12:04:26.951Z,2.90
2022-12-19T12:06:57.790Z,2.90
2022-12-19T12:11:41.474Z,3.00
2022-12-19T12:21:00.189Z,3.00
2022-12-19T12:24:40.719Z,3.00
2022-12-19T12:31:12.379Z,3.10
2022-12-19T12:31:28.140Z,3.10
2022-12-19T12:31:41.328Z,3.00
2022-12-19T12:31:55.332Z,3.10
2022-12-19T12:31:56.046Z,3.10
2022-12-19T12:35:46.390Z,3.10
2022-12-19T12:39:26.689Z,3.30
2022-12-19T12:42:08.392Z,3.50
2022-12-19T12:44:44.743Z,3.50
2022-12-19T12:47:18.743Z,3.40
2022-12-19T12:49:51.245Z,3.40
2022-12-19T12:52:30.788Z,3.30
2022-12-19T12:54:59.380Z,3.40
2022-12-19T12:57:36.645Z,3.30
2022-12-19T13:00:26.908Z,3.40
2022-12-19T13:03:04.842Z,3.40
2022-12-19T13:05:40.599Z,3.40
2022-12-19T13:08:31.978Z,3.40
2022-12-19T13:11:02.795Z,3.40
2022-12-19T13:13:52.644Z,3.40
2022-12-19T13:16:56.957Z,3.50
2022-12-19T13:19:28.859Z,3.50
2022-12-19T13:22:21.974Z,3.50
2022-12-19T13:24:51.715Z,3.50
2022-12-19T13:27:38.324Z,3.60
2022-12-19T13:30:16.259Z,3.60
2022-12-19T13:33:10.111Z,3.60
2022-12-19T13:36:46.975Z,3.60
2022-12-19T13:39:52.445Z,3.70
2022-12-19T13:41:47.553Z,3.70
2022-12-19T13:44:19.059Z,3.70
2022-12-19T13:46:48.315Z,3.70
2022-12-19T13:49:20.341Z,3.70
2022-12-19T13:51:50.119Z,3.70
2022-12-19T13:54:28.221Z,3.70
2022-12-19T13:57:03.363Z,3.70
2022-12-19T13:59:40.743Z,3.80
2022-12-19T14:02:32.599Z,3.80
2022-12-19T14:06:17.658Z,3.80
2022-12-19T14:08:18.890Z,3.80
2022-12-19T14:11:40.434Z,3.80
2022-12-19T14:14:10.738Z,3.80
2022-12-19T14:16:44.488Z,3.80
2022-12-19T14:19:21.523Z,3.90
2022-12-19T14:22:05.734Z,3.90
2022-12-19T14:24:37.432Z,3.90
2022-12-19T14:28:17.446Z,3.90
2022-12-19T14:30:29.930Z,3.90
2022-12-19T14:33:22.141Z,4.00
2022-12-19T14:36:07.384Z,4.00
2022-12-19T14:39:26.451Z,4.00
2022-12-19T14:41:47.736Z,4.00
2022-12-19T14:52:51.654Z,4.10
2022-12-19T14:54:20.630Z,4.10
2022-12-19T14:54:21.704Z,4.20
2022-12-19T14:54:40.199Z,4.20
2022-12-19T14:56:08.436Z,4.30
2022-12-19T14:58:54.063Z,4.30
2022-12-19T15:01:25.258Z,4.30
2022-12-19T15:04:48.391Z,4.40
2022-12-19T15:07:08.623Z,4.40
2022-12-19T15:11:03.348Z,4.40
2022-12-19T15:14:47.271Z,4.40
2022-12-19T15:15:45.506Z,4.40
2022-12-19T15:18:24.426Z,4.50
2022-12-19T15:20:53.716Z,4.50
2022-12-19T15:23:22.675Z,4.50
2022-12-19T15:26:07.891Z,4.50
2022-12-19T15:28:40.987Z,4.50
2022-12-19T15:31:24.223Z,4.70
2022-12-19T15:34:32.464Z,4.70
2022-12-19T15:36:41.762Z,4.80
2022-12-19T15:39:09.826Z,4.80
2022-12-19T15:41:37.772Z,4.80
2022-12-19T15:44:10.546Z,4.90
2022-12-19T15:46:42.986Z,4.90
2022-12-19T15:49:17.485Z,5.00
2022-12-19T15:51:45.851Z,5.00
2022-12-19T15:57:02.146Z,5.10
2022-12-19T15:59:38.225Z,5.10
2022-12-19T16:02:17.420Z,5.00
2022-12-19T16:04:48.547Z,5.10
2022-12-19T16:07:18.437Z,5.10
2022-12-19T16:09:46.668Z,5.10
2022-12-19T16:12:16.595Z,5.10
2022-12-19T16:14:46.449Z,5.10
2022-12-19T16:17:19.976Z,5.10
2022-12-19T16:19:51.026Z,5.20
2022-12-19T16:22:21.054Z,5.20
2022-12-19T16:24:49.619Z,5.20
2022-12-19T16:27:24.595Z,5.20
2022-12-19T16:29:53.130Z,5.30
2022-12-19T16:32:23.762Z,5.30
2022-12-19T16:34:54.242Z,5.30
2022-12-19T16:37:24.693Z,5.40
2022-12-19T16:39:56.649Z,5.50
2022-12-19T16:42:24.410Z,5.40
2022-12-19T16:44:53.465Z,5.40
2022-12-19T16:47:21.515Z,5.50
2022-12-19T16:49:49.547Z,5.60
2022-12-19T16:52:18.691Z,5.60
2022-12-19T16:54:46.775Z,5.70
2022-12-19T16:57:20.724Z,5.60
2022-12-19T16:59:49.432Z,5.60
2022-12-19T17:02:38.837Z,5.60
2022-12-19T17:05:07.861Z,5.70
2022-12-19T17:07:36.993Z,5.70
2022-12-19T17:10:05.416Z,5.70
2022-12-19T17:12:33.418Z,5.80
2022-12-19T17:15:01.301Z,5.80
2022-12-19T17:17:29.661Z,5.80
2022-12-19T17:19:57.607Z,5.90
2022-12-19T17:22:25.587Z,5.90
2022-12-19T17:24:54.785Z,5.90
2022-12-19T17:27:23.310Z,5.90
2022-12-19T17:29:51.108Z,5.90
2022-12-19T17:32:23.872Z,5.90
2022-12-19T17:34:53.419Z,5.90
2022-12-19T17:37:21.746Z,6.00
2022-12-19T17:39:49.594Z,5.90
2022-12-19T17:42:22.589Z,5.90
2022-12-19T17:44:50.722Z,5.90
2022-12-19T17:47:20.885Z,6.00
2022-12-19T17:49:49.768Z,6.00
2022-12-19T17:52:19.702Z,6.00
2022-12-19T17:54:48.052Z,6.00
2022-12-19T17:57:16.405Z,6.00
2022-12-19T17:59:46.413Z,6.00
2022-12-19T18:02:23.726Z,6.00
2022-12-19T18:04:52.555Z,6.00
2022-12-19T18:07:20.637Z,6.00
2022-12-19T18:09:49.807Z,6.00
2022-12-19T18:12:17.704Z,6.00
2022-12-19T18:14:46.864Z,6.10
2022-12-19T18:17:19.491Z,6.10
2022-12-19T18:19:47.414Z,6.10
2022-12-19T18:22:15.685Z,6.10
2022-12-19T18:24:43.722Z,6.10
2022-12-19T18:27:11.525Z,6.10
2022-12-19T18:29:40.507Z,6.10
2022-12-19T18:32:17.139Z,6.10
2022-12-19T18:34:45.514Z,6.10
2022-12-19T18:37:15.761Z,6.10
2022-12-19T18:39:43.859Z,6.10
2022-12-19T18:42:20.526Z,6.10
2022-12-19T18:44:48.465Z,6.10
2022-12-19T18:47:23.039Z,6.10
2022-12-19T18:49:52.783Z,6.10
2022-12-19T18:52:20.796Z,6.10
2022-12-19T18:54:48.663Z,6.10
2022-12-19T18:57:16.639Z,6.10
2022-12-19T18:59:44.476Z,6.10
2022-12-19T19:02:26.038Z,6.10
2022-12-19T19:04:55.666Z,6.20
2022-12-19T19:07:23.679Z,6.10
2022-12-19T19:09:51.720Z,6.20
2022-12-19T19:12:37.221Z,6.20
2022-12-19T19:15:07.039Z,6.20
2022-12-19T19:17:36.321Z,6.20
2022-12-19T19:20:05.352Z,6.20
2022-12-19T19:22:33.304Z,6.20
2022-12-19T19:25:01.183Z,6.20
2022-12-19T19:27:29.174Z,6.20
2022-12-19T19:29:57.123Z,6.20
2022-12-19T19:32:25.900Z,6.20
2022-12-19T19:34:55.958Z,6.20
2022-12-19T19:37:24.296Z,6.20
2022-12-19T19:39:52.167Z,6.20
2022-12-19T19:42:20.004Z,6.20
2022-12-19T19:44:47.867Z,6.20
2022-12-19T19:47:16.230Z,6.20
2022-12-19T19:49:44.674Z,6.20
2022-12-19T19:52:14.093Z,6.20
2022-12-19T19:54:41.993Z,6.20
2022-12-19T19:57:09.838Z,6.30
2022-12-19T19:59:37.742Z,6.20
2022-12-19T20:02:05.705Z,6.30
2022-12-19T20:04:34.020Z,6.30
2022-12-19T20:07:01.980Z,6.30
2022-12-19T20:09:31.367Z,6.30
2022-12-19T20:12:00.298Z,6.30
2022-12-19T20:14:28.369Z,6.30
2022-12-19T20:16:56.157Z,6.30
2022-12-19T20:19:24.182Z,6.30
2022-12-19T20:21:52.103Z,6.30
2022-12-19T20:24:20.133Z,6.30
2022-12-19T20:26:49.377Z,6.30
2022-12-19T20:29:17.253Z,6.30
2022-12-19T20:31:45.252Z,6.30
2022-12-19T20:34:13.468Z,6.30
2022-12-19T20:36:41.311Z,6.30
2022-12-19T20:39:09.430Z,6.30
2022-12-19T20:41:37.309Z,6.30
2022-12-19T20:44:06.812Z,6.30
2022-12-19T20:46:34.847Z,6.30
2022-12-19T20:49:02.880Z,6.30
2022-12-19T20:51:30.892Z,6.30
2022-12-19T20:53:58.738Z,6.30
2022-12-19T20:56:26.700Z,6.30
2022-12-19T20:58:55.156Z,6.30
2022-12-19T21:01:25.941Z,6.30
2022-12-19T21:03:54.394Z,6.30
2022-12-19T21:06:25.222Z,6.30
2022-12-19T21:08:53.118Z,6.30
2022-12-19T21:11:21.016Z,6.30
2022-12-19T21:13:49.029Z,6.30
2022-12-19T21:16:20.438Z,6.30
2022-12-19T21:18:51.004Z,6.40
2022-12-19T21:21:21.177Z,6.30
2022-12-19T21:23:49.449Z,6.30
2022-12-19T21:26:18.209Z,6.30
2022-12-19T21:28:46.193Z,6.30
2022-12-19T21:31:16.943Z,6.30
2022-12-19T21:33:45.702Z,6.40
2022-12-19T21:36:18.906Z,6.40
2022-12-19T21:38:47.803Z,6.40
2022-12-19T21:41:18.833Z,6.40
2022-12-19T21:43:47.797Z,6.40
2022-12-19T21:46:17.084Z,6.40
2022-12-19T21:48:46.814Z,6.40
2022-12-19T21:51:18.417Z,6.30
2022-12-19T21:53:47.033Z,6.40
2022-12-19T21:56:23.173Z,6.30
2022-12-19T21:58:52.600Z,6.30
2022-12-19T22:01:21.007Z,6.30
2022-12-19T22:03:49.401Z,6.30
2022-12-19T22:06:27.367Z,6.30
2022-12-19T22:08:56.673Z,6.30
2022-12-19T22:11:25.648Z,6.30
2022-12-19T22:13:53.968Z,6.30
2022-12-19T22:16:21.969Z,6.30
2022-12-19T22:18:51.258Z,6.30
2022-12-19T22:21:21.359Z,6.30
2022-12-19T22:23:49.276Z,6.20
2022-12-19T22:26:19.734Z,6.20
2022-12-19T22:28:50.380Z,6.20
2022-12-19T22:31:20.376Z,6.20
2022-12-19T22:33:49.413Z,6.20
2022-12-19T22:36:23.968Z,6.20
2022-12-19T22:38:58.358Z,6.20
2022-12-19T22:41:26.762Z,6.20
2022-12-19T22:43:55.515Z,6.20
2022-12-19T22:46:27.086Z,6.20
2022-12-19T22:48:57.742Z,6.20
2022-12-19T22:51:26.340Z,6.20
2022-12-19T22:53:54.570Z,6.20
2022-12-19T22:56:27.460Z,6.30
2022-12-19T22:58:57.360Z,6.30
2022-12-19T23:01:27.044Z,6.30
2022-12-19T23:03:56.758Z,6.40
2022-12-19T23:06:26.103Z,6.40
2022-12-19T23:08:54.177Z,6.40
2022-12-19T23:11:27.488Z,6.50
2022-12-19T23:13:55.453Z,6.50
2022-12-19T23:16:23.320Z,6.60
2022-12-19T23:18:51.311Z,6.60
2022-12-19T23:21:21.202Z,6.60
2022-12-19T23:23:50.649Z,6.50
2022-12-19T23:26:20.954Z,6.50
2022-12-19T23:28:54.163Z,6.50
2022-12-19T23:31:22.155Z,6.50
2022-12-19T23:33:50.110Z,6.60
2022-12-19T23:36:32.282Z,6.50
2022-12-19T23:39:06.572Z,6.50
2022-12-19T23:41:34.477Z,6.60
2022-12-19T23:44:03.748Z,6.60
2022-12-19T23:46:31.712Z,6.60
2022-12-19T23:48:59.644Z,6.60
2022-12-19T23:51:28.461Z,6.70
2022-12-19T23:53:57.491Z,6.70
2022-12-19T23:56:26.874Z,6.70
2022-12-19T23:58:55.266Z,6.70
